createdAt,value
2023-04-09T00:02:15.593Z,47.80
2023-04-09T00:04:42.241Z,51.08
2023-04-09T00:07:08.704Z,49.85
2023-04-09T00:09:35.594Z,48.38
2023-04-09T00:12:02.119Z,46.45
2023-04-09T00:14:28.589Z,48.67
2023-04-09T00:16:55.364Z,51.65
2023-04-09T00:19:21.791Z,48.65
2023-04-09T00:21:48.486Z,48.55
2023-04-09T00:24:15.348Z,53.47
2023-04-09T00:26:41.861Z,48.65
2023-04-09T00:29:08.341Z,49.85
2023-04-09T00:31:35.026Z,53.28
2023-04-09T00:34:01.631Z,46.35
2023-04-09T00:36:28.104Z,50.05
2023-04-09T00:38:54.793Z,55.90
2023-04-09T00:41:21.417Z,52.63
2023-04-09T00:43:47.903Z,51.75
2023-04-09T00:46:14.698Z,51.03
2023-04-09T00:48:41.679Z,51.40
2023-04-09T00:51:08.293Z,51.45
2023-04-09T00:53:35.143Z,55.08
2023-04-09T00:56:02.827Z,54.95
2023-04-09T00:58:29.361Z,56.83
2023-04-09T01:00:56.071Z,52.65
2023-04-09T01:03:22.914Z,53.17
2023-04-09T01:09:48.259Z,52.25
2023-04-09T01:12:32.802Z,52.05
2023-04-09T01:15:05.697Z,53.25
2023-04-09T01:17:44.474Z,57.30
2023-04-09T01:20:22.920Z,51.38
2023-04-09T01:23:01.243Z,53.33
2023-04-09T01:25:42.623Z,52.42
2023-04-09T01:28:19.621Z,51.08
2023-04-09T01:30:50.648Z,53.42
2023-04-09T01:33:19.827Z,57.17
2023-04-09T01:35:48.659Z,51.85
2023-04-09T01:38:18.318Z,51.63
2023-04-09T01:40:45.446Z,56.22
2023-04-09T01:43:13.450Z,58.55
2023-04-09T01:45:40.940Z,53.90
2023-04-09T01:48:08.098Z,53.22
2023-04-09T01:50:35.605Z,51.17
2023-04-09T01:53:02.843Z,51.53
2023-04-09T01:55:29.417Z,53.03
2023-04-09T01:57:55.960Z,46.83
2023-04-09T02:00:23.808Z,44.88
2023-04-09T02:03:08.141Z,50.25
2023-04-09T02:05:41.522Z,51.63
2023-04-09T02:08:12.586Z,47.65
2023-04-09T02:10:40.652Z,35.85
2023-04-09T02:13:12.142Z,48.80
2023-04-09T02:15:40.346Z,48.33
2023-04-09T02:18:21.452Z,53.28
2023-04-09T02:20:47.939Z,50.53
2023-04-09T02:23:16.524Z,51.95
2023-04-09T02:25:44.378Z,51.92
2023-04-09T02:28:11.075Z,56.28
2023-04-09T02:30:37.553Z,53.95
2023-04-09T02:33:04.312Z,55.45
2023-04-09T02:35:30.813Z,54.00
2023-04-09T02:37:57.425Z,50.38
2023-04-09T02:40:23.934Z,51.95
2023-04-09T02:42:54.492Z,54.85
2023-04-09T02:45:21.013Z,38.10
2023-04-09T02:47:47.504Z,54.63
2023-04-09T02:50:14.027Z,59.75
2023-04-09T02:52:40.677Z,52.65
2023-04-09T02:55:08.245Z,54.22
2023-04-09T02:57:34.675Z,55.03
2023-04-09T03:00:01.085Z,58.42
2023-04-09T03:02:27.737Z,53.30
2023-04-09T03:04:54.321Z,60.10
2023-04-09T03:07:20.845Z,54.60
2023-04-09T03:09:47.303Z,57.75
2023-04-09T03:12:13.768Z,59.03
2023-04-09T03:14:40.223Z,61.70
2023-04-09T03:17:06.664Z,57.00
2023-04-09T03:19:33.118Z,59.13
2023-04-09T03:21:59.556Z,59.42
2023-04-09T03:24:26.156Z,54.70
2023-04-09T03:26:52.639Z,57.08
2023-04-09T03:29:19.351Z,57.13
2023-04-09T03:31:45.772Z,56.97
2023-04-09T03:34:12.320Z,56.80
2023-04-09T03:36:38.756Z,57.70
2023-04-09T03:39:05.325Z,56.10
2023-04-09T03:41:32.021Z,57.38
2023-04-09T03:43:58.463Z,55.47
2023-04-09T03:46:25.220Z,54.95
2023-04-09T03:48:52.046Z,54.58
2023-04-09T03:51:18.952Z,63.67
2023-04-09T03:53:45.430Z,52.70
2023-04-09T03:56:11.836Z,57.20
2023-04-09T03:58:38.305Z,56.95
2023-04-09T04:01:04.868Z,51.70
2023-04-09T04:03:31.897Z,56.45
2023-04-09T04:06:03.076Z,59.20
2023-04-09T04:08:29.877Z,53.55
2023-04-09T04:10:56.501Z,49.47
2023-04-09T04:13:23.087Z,53.75
2023-04-09T04:15:49.659Z,51.40
2023-04-09T04:18:16.122Z,51.17
2023-04-09T04:20:42.554Z,55.63
2023-04-09T04:23:09.044Z,53.35
2023-04-09T04:25:35.681Z,56.30
2023-04-09T04:28:02.276Z,56.25
2023-04-09T04:30:28.820Z,53.70
2023-04-09T04:32:55.374Z,50.97
2023-04-09T04:35:21.949Z,57.58
2023-04-09T04:37:51.375Z,50.80
2023-04-09T04:40:18.040Z,53.92
2023-04-09T04:42:44.593Z,54.17
2023-04-09T04:45:11.292Z,54.45
2023-04-09T04:47:37.801Z,53.88
2023-04-09T04:50:04.898Z,55.47
2023-04-09T04:52:31.349Z,52.63
2023-04-09T04:54:58.514Z,53.58
2023-04-09T04:57:25.071Z,56.08
2023-04-09T04:59:51.541Z,53.88
2023-04-09T05:02:18.035Z,52.75
2023-04-09T05:04:44.558Z,49.83
2023-04-09T05:07:11.014Z,53.05
2023-04-09T05:09:37.438Z,50.30
2023-04-09T05:12:04.018Z,53.10
2023-04-09T05:14:30.525Z,54.03
2023-04-09T05:16:57.176Z,54.65
2023-04-09T05:19:23.676Z,56.38
2023-04-09T05:21:50.293Z,56.85
2023-04-09T05:24:17.041Z,57.40
2023-04-09T05:26:43.479Z,75.72
2023-04-09T05:29:09.970Z,61.60
2023-04-09T05:31:36.430Z,60.38
2023-04-09T05:34:02.858Z,73.72
2023-04-09T05:36:29.293Z,60.90
2023-04-09T05:38:55.981Z,82.53
2023-04-09T05:41:22.540Z,64.63
2023-04-09T05:43:48.993Z,144.00
2023-04-09T05:46:15.475Z,73.28
2023-04-09T05:48:41.894Z,144.02
2023-04-09T05:51:09.617Z,160.00
2023-04-09T05:53:36.115Z,119.78
2023-04-09T05:56:02.605Z,86.40
2023-04-09T05:58:29.650Z,89.63
2023-04-09T06:00:56.185Z,103.40
2023-04-09T06:03:22.808Z,95.78
2023-04-09T06:05:50.521Z,90.53
2023-04-09T06:08:17.245Z,114.30
2023-04-09T06:10:43.684Z,94.40
2023-04-09T06:13:10.417Z,103.35
2023-04-09T06:15:38.716Z,94.75
2023-04-09T06:18:05.213Z,96.85
2023-04-09T06:20:31.752Z,98.55
2023-04-09T06:22:58.553Z,93.22
2023-04-09T06:25:25.256Z,94.13
2023-04-09T06:27:52.449Z,113.68
2023-04-09T06:30:18.925Z,90.63
2023-04-09T06:32:54.530Z,83.32
2023-04-09T06:35:22.098Z,86.03
2023-04-09T06:37:48.589Z,88.85
2023-04-09T06:40:15.550Z,82.95
2023-04-09T06:42:41.991Z,84.63
2023-04-09T06:45:09.014Z,87.72
2023-04-09T06:47:36.239Z,96.47
2023-04-09T06:50:03.150Z,78.70
2023-04-09T06:52:29.664Z,77.32
2023-04-09T06:54:56.116Z,76.55
2023-04-09T06:57:22.584Z,71.70
2023-04-09T06:59:49.127Z,71.22
2023-04-09T07:02:15.760Z,69.28
2023-04-09T07:04:42.563Z,67.63
2023-04-09T07:07:09.144Z,70.07
2023-04-09T07:09:35.907Z,72.63
2023-04-09T07:12:02.410Z,65.88
2023-04-09T07:14:28.990Z,62.80
2023-04-09T07:16:55.546Z,57.10
2023-04-09T07:19:22.000Z,56.53
2023-04-09T07:21:48.430Z,57.00
2023-04-09T07:24:14.993Z,53.50
2023-04-09T07:26:41.514Z,55.42
2023-04-09T07:29:08.078Z,48.72
2023-04-09T07:31:35.876Z,54.17
2023-04-09T07:34:02.672Z,50.00
2023-04-09T07:36:29.172Z,56.53
2023-04-09T07:38:55.689Z,49.03
2023-04-09T07:41:22.247Z,49.20
2023-04-09T07:43:48.717Z,47.53
2023-04-09T07:46:21.960Z,47.70
2023-04-09T07:48:50.155Z,44.92
2023-04-09T07:51:16.888Z,46.38
2023-04-09T07:53:43.348Z,44.28
2023-04-09T07:56:09.864Z,42.75
2023-04-09T07:58:37.902Z,42.95
2023-04-09T08:01:04.730Z,43.03
2023-04-09T08:03:31.543Z,44.13
2023-04-09T08:05:58.253Z,49.20
2023-04-09T08:08:24.670Z,41.38
2023-04-09T08:10:51.606Z,45.22
2023-04-09T08:13:18.008Z,58.13
2023-04-09T08:15:44.574Z,46.85
2023-04-09T08:18:11.096Z,46.25
2023-04-09T08:20:37.879Z,46.65
2023-04-09T08:23:04.410Z,46.50
2023-04-09T08:25:30.941Z,50.58
2023-04-09T08:27:58.118Z,51.10
2023-04-09T08:30:24.642Z,44.75
2023-04-09T08:32:51.230Z,47.28
2023-04-09T08:35:17.811Z,46.88
2023-04-09T08:37:44.381Z,40.72
2023-04-09T08:40:11.740Z,41.88
2023-04-09T08:42:47.768Z,42.85
2023-04-09T08:45:14.359Z,43.05
2023-04-09T08:47:43.605Z,40.13
2023-04-09T08:50:10.771Z,43.58
2023-04-09T08:52:38.157Z,42.80
2023-04-09T08:55:05.170Z,41.55
2023-04-09T08:57:37.560Z,49.13
2023-04-09T09:00:05.016Z,45.13
2023-04-09T09:02:31.840Z,73.82
2023-04-09T09:05:00.888Z,41.75
2023-04-09T09:07:31.366Z,39.60
2023-04-09T09:10:04.894Z,40.53
2023-04-09T09:12:33.046Z,36.28
2023-04-09T09:14:59.785Z,35.45
2023-04-09T09:17:26.568Z,33.65
2023-04-09T09:19:53.312Z,32.10
2023-04-09T09:22:19.796Z,32.50
2023-04-09T09:24:51.198Z,34.25
2023-04-09T09:27:36.685Z,35.88
2023-04-09T09:30:05.663Z,36.63
2023-04-09T09:32:35.701Z,34.35
2023-04-09T09:35:06.790Z,36.25
2023-04-09T09:37:34.227Z,33.90
2023-04-09T09:40:01.447Z,34.45
2023-04-09T09:42:29.379Z,34.20
2023-04-09T09:44:56.460Z,34.00
2023-04-09T09:47:23.658Z,37.80
2023-04-09T09:49:51.442Z,31.85
2023-04-09T09:52:24.231Z,32.33
2023-04-09T09:54:53.331Z,32.55
2023-04-09T09:57:22.260Z,33.58
2023-04-09T09:59:56.131Z,33.97
2023-04-09T10:02:26.783Z,33.45
2023-04-09T10:04:53.845Z,34.88
2023-04-09T10:07:22.336Z,30.33
2023-04-09T10:09:54.186Z,50.20
2023-04-09T10:12:23.879Z,30.67
2023-04-09T10:14:52.878Z,30.77
2023-04-09T10:17:20.893Z,33.75
2023-04-09T10:20:01.187Z,32.15
2023-04-09T10:22:32.062Z,33.63
2023-04-09T10:25:00.003Z,32.78
2023-04-09T10:27:28.561Z,36.03
2023-04-09T10:29:55.107Z,35.30
2023-04-09T10:32:26.508Z,37.33
2023-04-09T10:34:57.268Z,33.88
2023-04-09T10:37:28.013Z,32.97
2023-04-09T10:39:54.804Z,35.97
2023-04-09T10:42:27.369Z,35.53
2023-04-09T10:45:11.595Z,33.70
2023-04-09T10:47:40.795Z,39.85
2023-04-09T10:50:27.946Z,38.75
2023-04-09T10:53:00.806Z,34.42
2023-04-09T10:55:41.239Z,36.03
2023-04-09T10:58:13.528Z,35.85
2023-04-09T11:00:42.673Z,36.03
2023-04-09T11:03:09.389Z,34.40
2023-04-09T11:05:40.498Z,34.40
2023-04-09T11:08:09.776Z,35.38
2023-04-09T11:10:37.765Z,37.55
2023-04-09T11:13:04.883Z,33.85
2023-04-09T11:15:34.359Z,35.85
2023-04-09T11:18:02.156Z,36.60
2023-04-09T11:20:30.697Z,34.47
2023-04-09T11:22:59.318Z,37.58
2023-04-09T11:25:36.196Z,35.83
2023-04-09T11:28:04.233Z,34.83
2023-04-09T11:30:31.236Z,32.85
2023-04-09T11:32:57.930Z,32.80
2023-04-09T11:35:25.010Z,33.13
2023-04-09T11:37:52.371Z,34.03
2023-04-09T11:40:26.556Z,31.85
2023-04-09T11:42:54.455Z,31.70
2023-04-09T11:45:24.458Z,35.05
2023-04-09T11:47:51.587Z,32.60
2023-04-09T11:50:19.555Z,28.88
2023-04-09T11:52:46.875Z,28.08
2023-04-09T11:55:23.697Z,30.52
2023-04-09T11:57:51.768Z,27.55
2023-04-09T12:00:18.318Z,26.17
2023-04-09T12:02:46.780Z,28.17
2023-04-09T12:05:22.864Z,24.15
2023-04-09T12:07:56.374Z,21.63
2023-04-09T12:10:30.674Z,23.23
2023-04-09T12:13:07.897Z,21.02
2023-04-09T12:15:36.694Z,24.63
2023-04-09T12:18:08.413Z,23.65
2023-04-09T12:20:43.587Z,25.40
2023-04-09T12:23:11.541Z,26.20
2023-04-09T12:25:40.663Z,28.15
2023-04-09T12:28:08.522Z,24.45
2023-04-09T12:30:35.634Z,32.30
2023-04-09T12:33:03.827Z,30.80
2023-04-09T12:35:30.800Z,28.17
2023-04-09T12:37:59.213Z,30.35
2023-04-09T12:40:25.702Z,26.25
2023-04-09T12:42:52.405Z,26.30
2023-04-09T12:45:19.876Z,28.10
2023-04-09T12:47:46.882Z,29.30
2023-04-09T12:50:16.346Z,29.20
2023-04-09T12:52:44.429Z,27.58
2023-04-09T12:55:11.930Z,25.05
2023-04-09T12:57:40.287Z,27.55
2023-04-09T13:00:08.012Z,30.08
2023-04-09T13:02:35.109Z,24.63
2023-04-09T13:05:02.013Z,24.63
2023-04-09T13:07:29.701Z,22.33
2023-04-09T13:09:57.251Z,22.48
2023-04-09T13:12:24.532Z,24.33
2023-04-09T13:14:53.634Z,28.80
2023-04-09T13:17:20.244Z,25.00
2023-04-09T13:19:46.804Z,24.55
2023-04-09T13:22:13.423Z,23.77
2023-04-09T13:24:40.011Z,25.40
2023-04-09T13:27:09.594Z,28.33
2023-04-09T13:29:36.281Z,25.60
2023-04-09T13:32:07.062Z,20.48
2023-04-09T13:34:35.130Z,19.42
2023-04-09T13:37:04.904Z,21.17
2023-04-09T13:39:31.446Z,16.88
2023-04-09T13:41:58.203Z,20.27
2023-04-09T13:44:25.594Z,16.00
2023-04-09T13:46:52.174Z,17.13
2023-04-09T13:49:18.690Z,17.10
2023-04-09T13:51:45.326Z,19.40
2023-04-09T13:54:11.845Z,19.85
2023-04-09T13:56:39.466Z,19.83
2023-04-09T13:59:06.399Z,22.70
2023-04-09T14:01:33.210Z,21.27
2023-04-09T14:03:59.914Z,19.02
2023-04-09T14:06:26.591Z,20.45
2023-04-09T14:08:53.542Z,16.05
2023-04-09T14:11:20.666Z,17.92
2023-04-09T14:13:47.331Z,17.30
2023-04-09T14:16:13.898Z,18.67
2023-04-09T14:18:40.357Z,17.23
2023-04-09T14:21:09.988Z,18.90
2023-04-09T14:23:37.014Z,21.73
2023-04-09T14:26:04.379Z,21.40
2023-04-09T14:28:32.219Z,17.67
2023-04-09T14:30:59.394Z,17.98
2023-04-09T14:33:26.742Z,21.15
2023-04-09T14:35:53.438Z,19.67
2023-04-09T14:38:20.111Z,16.67
2023-04-09T14:40:46.576Z,18.15
2023-04-09T14:43:13.018Z,15.48
2023-04-09T14:45:39.610Z,17.15
2023-04-09T14:48:06.382Z,16.75
2023-04-09T14:50:33.955Z,17.80
2023-04-09T14:53:00.993Z,18.65
2023-04-09T14:55:27.673Z,19.92
2023-04-09T14:57:54.139Z,19.70
2023-04-09T15:00:20.781Z,19.77
2023-04-09T15:02:47.803Z,16.67
2023-04-09T15:05:14.737Z,18.52
2023-04-09T15:07:41.670Z,17.83
2023-04-09T15:10:08.791Z,17.25
2023-04-09T15:12:35.273Z,18.75
2023-04-09T15:15:05.570Z,20.15
2023-04-09T15:17:32.478Z,21.40
2023-04-09T15:19:59.052Z,20.77
2023-04-09T15:22:25.664Z,18.42
2023-04-09T15:24:53.906Z,19.17
2023-04-09T15:27:20.487Z,19.73
2023-04-09T15:29:47.086Z,17.48
2023-04-09T15:32:13.683Z,19.30
2023-04-09T15:34:40.312Z,18.90
2023-04-09T15:37:06.768Z,20.80
2023-04-09T15:39:33.261Z,19.27
2023-04-09T15:41:59.831Z,21.45
2023-04-09T15:44:26.315Z,28.88
2023-04-09T15:46:52.880Z,21.88
2023-04-09T15:49:19.763Z,17.75
2023-04-09T15:51:46.520Z,16.48
2023-04-09T15:54:12.980Z,18.52
2023-04-09T15:56:40.280Z,23.58
2023-04-09T15:59:08.283Z,23.98
2023-04-09T16:01:36.264Z,30.80
2023-04-09T16:04:04.563Z,30.45
2023-04-09T16:06:31.390Z,34.28
2023-04-09T16:08:57.886Z,32.17
2023-04-09T16:11:24.600Z,32.92
2023-04-09T16:13:51.080Z,33.55
2023-04-09T16:16:17.866Z,33.58
2023-04-09T16:18:44.455Z,30.33
2023-04-09T16:21:11.193Z,34.05
2023-04-09T16:23:38.460Z,33.70
2023-04-09T16:26:05.378Z,31.27
2023-04-09T16:28:31.944Z,31.15
2023-04-09T16:30:59.440Z,29.85
2023-04-09T16:33:26.222Z,34.55
2023-04-09T16:35:52.869Z,31.65
2023-04-09T16:38:19.454Z,27.40
2023-04-09T16:40:45.980Z,27.40
2023-04-09T16:43:12.430Z,27.58
2023-04-09T16:45:38.898Z,29.02
2023-04-09T16:48:10.784Z,28.10
2023-04-09T16:50:38.309Z,26.38
2023-04-09T16:53:04.848Z,25.67
2023-04-09T16:55:31.507Z,27.95
2023-04-09T16:57:58.822Z,25.55
2023-04-09T17:00:25.603Z,23.88
2023-04-09T17:02:52.416Z,28.48
2023-04-09T17:05:19.080Z,25.40
2023-04-09T17:07:45.561Z,20.85
2023-04-09T17:10:12.177Z,21.65
2023-04-09T17:12:38.882Z,24.38
2023-04-09T17:15:05.758Z,24.45
2023-04-09T17:17:33.336Z,22.17
2023-04-09T17:20:01.545Z,19.60
2023-04-09T17:22:28.014Z,21.55
2023-04-09T17:24:54.511Z,20.13
2023-04-09T17:27:20.973Z,26.35
2023-04-09T17:29:47.515Z,19.50
2023-04-09T17:32:13.988Z,25.13
2023-04-09T17:34:40.535Z,23.73
2023-04-09T17:37:07.286Z,21.35
2023-04-09T17:39:33.753Z,21.60
2023-04-09T17:42:01.621Z,22.13
2023-04-09T17:44:28.121Z,26.15
2023-04-09T17:46:54.709Z,24.38
2023-04-09T17:49:22.415Z,26.63
2023-04-09T17:51:49.006Z,28.13
2023-04-09T17:54:15.574Z,26.65
2023-04-09T17:56:42.088Z,25.40
2023-04-09T17:59:08.596Z,30.50
2023-04-09T18:01:35.273Z,25.73
2023-04-09T18:04:02.148Z,27.92
2023-04-09T18:06:29.213Z,30.88
2023-04-09T18:08:55.749Z,30.90
2023-04-09T18:11:23.574Z,27.08
2023-04-09T18:13:50.964Z,30.88
2023-04-09T18:16:19.469Z,31.08
2023-04-09T18:18:46.293Z,29.73
2023-04-09T18:21:12.800Z,30.83
2023-04-09T18:23:40.386Z,29.98
2023-04-09T18:26:07.913Z,29.05
2023-04-09T18:28:35.142Z,32.75
2023-04-09T18:31:02.051Z,30.25
2023-04-09T18:33:28.706Z,28.95
2023-04-09T18:35:55.299Z,26.10
2023-04-09T18:38:22.019Z,30.58
2023-04-09T18:40:48.552Z,31.58
2023-04-09T18:43:15.455Z,29.70
2023-04-09T18:45:42.003Z,30.20
2023-04-09T18:48:08.947Z,30.90
2023-04-09T18:50:36.117Z,31.33
2023-04-09T18:53:03.649Z,30.35
2023-04-09T18:55:30.728Z,28.55
2023-04-09T18:57:57.525Z,28.95
2023-04-09T19:00:24.175Z,30.42
2023-04-09T19:02:50.875Z,32.40
2023-04-09T19:05:17.598Z,31.35
2023-04-09T19:07:44.067Z,30.50
2023-04-09T19:10:10.868Z,31.00
2023-04-09T19:12:37.802Z,31.52
2023-04-09T19:15:04.958Z,33.75
2023-04-09T19:17:32.230Z,38.92
2023-04-09T19:19:58.737Z,36.65
2023-04-09T19:22:25.337Z,37.80
2023-04-09T19:24:51.851Z,38.22
2023-04-09T19:27:19.414Z,43.10
2023-04-09T19:29:47.145Z,39.92
2023-04-09T19:32:13.838Z,41.90
2023-04-09T19:34:40.409Z,43.50
2023-04-09T19:37:07.368Z,45.17
2023-04-09T19:39:34.109Z,39.47
2023-04-09T19:42:00.661Z,42.70
2023-04-09T19:44:27.105Z,43.03
2023-04-09T19:46:53.622Z,42.85
2023-04-09T19:49:20.421Z,36.33
2023-04-09T19:51:46.972Z,39.25
2023-04-09T19:54:15.119Z,40.38
2023-04-09T19:56:42.475Z,41.35
2023-04-09T19:59:08.961Z,39.20
2023-04-09T20:01:36.046Z,44.17
2023-04-09T20:04:02.812Z,41.28
2023-04-09T20:06:30.716Z,43.30
2023-04-09T20:08:57.296Z,44.15
2023-04-09T20:11:23.777Z,46.03
2023-04-09T20:13:50.352Z,44.97
2023-04-09T20:16:17.045Z,47.00
2023-04-09T20:18:43.575Z,44.47
2023-04-09T20:21:14.064Z,48.38
2023-04-09T20:23:40.696Z,45.50
2023-04-09T20:26:11.349Z,45.38
2023-04-09T20:28:37.886Z,50.45
2023-04-09T20:31:04.753Z,50.70
2023-04-09T20:33:32.079Z,49.38
2023-04-09T20:35:59.061Z,47.80
2023-04-09T20:38:25.600Z,48.05
2023-04-09T20:40:52.775Z,57.38
2023-04-09T20:43:20.462Z,47.05
2023-04-09T20:45:47.342Z,53.78
2023-04-09T20:48:14.842Z,52.47
2023-04-09T20:50:41.352Z,46.60
2023-04-09T20:53:08.054Z,47.78
2023-04-09T20:55:35.651Z,48.15
2023-04-09T20:58:04.241Z,56.45
2023-04-09T21:00:30.766Z,57.38
2023-04-09T21:02:57.455Z,52.75
2023-04-09T21:05:24.481Z,49.70
2023-04-09T21:07:52.588Z,47.30
2023-04-09T21:10:19.380Z,46.40
2023-04-09T21:12:45.920Z,51.50
2023-04-09T21:15:12.398Z,50.42
2023-04-09T21:17:38.895Z,51.38
2023-04-09T21:20:06.217Z,48.92
2023-04-09T21:22:34.412Z,62.53
2023-04-09T21:25:00.981Z,53.17
2023-04-09T21:27:27.561Z,60.72
2023-04-09T21:29:54.543Z,56.95
2023-04-09T21:32:21.166Z,62.55
2023-04-09T21:34:47.636Z,55.78
2023-04-09T21:37:14.084Z,56.60
2023-04-09T21:39:40.598Z,58.95
2023-04-09T21:42:08.719Z,61.92
2023-04-09T21:44:35.323Z,54.60
2023-04-09T21:47:01.879Z,64.95
2023-04-09T21:49:28.377Z,63.90
2023-04-09T21:51:55.725Z,60.08
2023-04-09T21:54:22.285Z,62.85
2023-04-09T21:56:48.795Z,59.60
2023-04-09T21:59:15.465Z,60.88
2023-04-09T22:01:42.151Z,56.78
2023-04-09T22:04:08.882Z,63.42
2023-04-09T22:06:35.426Z,62.30
2023-04-09T22:09:02.473Z,64.32
2023-04-09T22:11:29.234Z,60.80
2023-04-09T22:13:57.509Z,60.45
2023-04-09T22:16:24.985Z,66.93
2023-04-09T22:18:52.577Z,65.25
2023-04-09T22:21:19.298Z,66.72
2023-04-09T22:23:45.847Z,59.33
2023-04-09T22:26:12.344Z,60.65
2023-04-09T22:28:39.244Z,61.58
2023-04-09T22:31:06.420Z,56.50
2023-04-09T22:33:32.965Z,63.75
2023-04-09T22:35:59.716Z,64.40
2023-04-09T22:38:26.509Z,61.85
2023-04-09T22:40:53.277Z,66.35
2023-04-09T22:43:19.789Z,60.05
2023-04-09T22:45:54.087Z,58.65
2023-04-09T22:48:21.939Z,50.95
2023-04-09T22:50:49.408Z,57.10
2023-04-09T22:53:19.909Z,58.85
2023-04-09T22:55:47.530Z,54.80
2023-04-09T22:58:14.384Z,52.55
2023-04-09T23:00:41.108Z,58.85
2023-04-09T23:03:07.853Z,48.70
2023-04-09T23:05:34.520Z,49.95
2023-04-09T23:08:01.062Z,48.95
2023-04-09T23:10:27.611Z,49.47
2023-04-09T23:12:54.054Z,51.95
2023-04-09T23:15:20.613Z,48.17
2023-04-09T23:17:47.214Z,44.22
2023-04-09T23:20:14.916Z,51.70
2023-04-09T23:22:41.982Z,42.38
2023-04-09T23:25:08.884Z,51.40
2023-04-09T23:27:35.464Z,44.63
2023-04-09T23:30:01.958Z,48.03
2023-04-09T23:32:28.525Z,44.13
2023-04-09T23:34:57.161Z,38.55
2023-04-09T23:37:23.635Z,47.58
2023-04-09T23:39:50.356Z,53.65
2023-04-09T23:42:16.821Z,50.25
2023-04-09T23:44:43.999Z,48.60
2023-04-09T23:47:11.122Z,41.63
2023-04-09T23:49:38.092Z,47.25
2023-04-09T23:52:04.915Z,42.88
2023-04-09T23:54:32.623Z,43.33
2023-04-09T23:56:59.649Z,48.22
2023-04-09T23:59:26.271Z,44.42
